Time;durP1;ratioP1;P1;durP2;ratioP2;P2;SDS_P1;SDS_P2;PMS_P1;PMS_P2;Temp;Humidity;BMP_temperature;BMP_pressure;BME280_temperature;BME280_humidity;BME280_pressure;Samples;Min_cycle;Max_cycle;Signal;HPM_P1;HPM_P2
2022/09/10 00:01:19;;;;;;;2.97;2.77;;;17.90;99.90;;;;;;6215393;28;20449;-62
2022/09/10 00:04:22;;;;;;;3.67;3.37;;;17.90;99.90;;;;;;6216807;28;20469;-63
2022/09/10 00:07:26;;;;;;;3.37;3.07;;;17.90;99.90;;;;;;6216903;28;20461;-62
2022/09/10 00:10:29;;;;;;;4.03;3.07;;;17.80;99.90;;;;;;6218552;28;20475;-62
2022/09/10 00:13:34;;;;;;;4.90;2.53;;;17.80;99.90;;;;;;6208214;28;20233;-63
2022/09/10 00:16:38;;;;;;;4.03;3.70;;;17.90;99.90;;;;;;6215313;28;20527;-63
2022/09/10 00:19:42;;;;;;;3.90;3.60;;;17.90;99.90;;;;;;6214315;28;20480;-63
2022/09/10 00:22:47;;;;;;;3.43;3.07;;;17.90;99.90;;;;;;6204359;28;20381;-63
2022/09/10 00:25:51;;;;;;;2.93;2.63;;;17.90;99.90;;;;;;6204649;28;20238;-63
2022/09/10 00:28:58;;;;;;;2.60;2.40;;;17.90;99.90;;;;;;6204286;28;20284;-63
2022/09/10 00:32:03;;;;;;;3.10;2.80;;;17.90;99.90;;;;;;6204312;28;20265;-63
2022/09/10 00:35:07;;;;;;;2.90;2.70;;;17.80;99.90;;;;;;6203997;28;20822;-63
2022/09/10 00:38:12;;;;;;;2.70;2.50;;;17.80;99.90;;;;;;6204450;28;20473;-62
2022/09/10 00:41:16;;;;;;;2.67;2.47;;;17.80;99.90;;;;;;6204504;28;20508;-64
2022/09/10 00:44:59;;;;;;;3.20;2.90;;;17.70;99.90;;;;;;6204212;28;20481;-63
2022/09/10 00:48:05;;;;;;;3.37;3.10;;;17.70;99.90;;;;;;6205078;28;20480;-63
2022/09/10 00:51:08;;;;;;;4.70;2.40;;;17.70;99.90;;;;;;6219124;28;20473;-63
2022/09/10 00:54:11;;;;;;;3.63;2.50;;;17.70;99.90;;;;;;6223714;28;20260;-63
2022/09/10 00:57:19;;;;;;;4.43;2.50;;;17.70;99.90;;;;;;6228247;28;20530;-64
2022/09/10 01:00:24;;;;;;;2.80;2.60;;;17.70;99.90;;;;;;6227816;28;20964;-63
2022/09/10 01:03:28;;;;;;;7.93;3.30;;;17.70;99.90;;;;;;6228118;28;20515;-63
2022/09/10 01:06:32;;;;;;;4.07;2.73;;;17.60;99.90;;;;;;6227675;28;20972;-63
2022/09/10 01:09:36;;;;;;;2.80;2.60;;;17.60;99.90;;;;;;6227873;28;20846;-63
2022/09/10 01:13:08;;;;;;;3.60;2.60;;;17.60;99.90;;;;;;6227863;28;20483;-63
2022/09/10 01:16:21;;;;;;;6.53;3.20;;;17.60;99.90;;;;;;6221407;28;20468;-63
2022/09/10 01:19:58;;;;;;;4.23;2.17;;;17.50;99.90;;;;;;6227319;28;20464;-64
2022/09/10 01:23:25;;;;;;;2.60;2.40;;;17.50;99.90;;;;;;6227259;28;20480;-64
2022/09/10 01:26:45;;;;;;;3.57;3.23;;;17.40;99.90;;;;;;6211118;28;20750;-64
2022/09/10 01:29:57;;;;;;;4.60;3.20;;;17.30;99.90;;;;;;6227057;28;20815;-64
2022/09/10 01:33:07;;;;;;;3.33;3.03;;;17.30;99.90;;;;;;6227185;28;20534;-64
2022/09/10 01:36:17;;;;;;;3.40;2.70;;;17.30;99.90;;;;;;6226938;28;20532;-65
2022/09/10 01:39:23;;;;;;;3.67;3.30;;;17.20;99.90;;;;;;6226969;28;20570;-63
2022/09/10 01:42:27;;;;;;;4.43;4.03;;;17.20;99.90;;;;;;6226934;28;21046;-63
2022/09/10 01:45:40;;;;;;;2.97;2.77;;;17.20;99.90;;;;;;6226799;28;20486;-63
2022/09/10 01:49:04;;;;;;;9.73;3.50;;;17.20;99.90;;;;;;6226844;28;20920;-63
2022/09/10 01:52:21;;;;;;;3.33;2.93;;;17.10;99.90;;;;;;6226902;28;20445;-63
2022/09/10 01:55:33;;;;;;;3.80;3.50;;;17.20;99.90;;;;;;6226226;28;20837;-63
2022/09/10 01:58:39;;;;;;;3.87;3.57;;;17.20;99.90;;;;;;6226656;28;20552;-62
2022/09/10 02:01:49;;;;;;;4.50;4.20;;;17.20;99.90;;;;;;6226297;28;20480;-62
2022/09/10 02:04:53;;;;;;;5.50;5.10;;;17.20;99.90;;;;;;6226276;28;20607;-62
2022/09/10 02:08:00;;;;;;;5.47;4.90;;;17.20;99.90;;;;;;6226259;28;20480;-62
2022/09/10 02:11:06;;;;;;;4.60;3.70;;;17.20;99.90;;;;;;6226386;28;20476;-62
2022/09/10 02:14:09;;;;;;;4.60;4.30;;;17.20;99.90;;;;;;6226170;28;20472;-62
2022/09/10 02:17:14;;;;;;;4.73;4.43;;;17.30;99.90;;;;;;6226115;28;20467;-62
2022/09/10 02:20:18;;;;;;;4.17;3.77;;;17.30;99.90;;;;;;6226073;28;20483;-62
2022/09/10 02:23:27;;;;;;;6.00;5.10;;;17.40;99.90;;;;;;6226092;28;20476;-62
2022/09/10 02:26:30;;;;;;;5.47;4.77;;;17.40;99.90;;;;;;6226215;28;20472;-62
2022/09/10 02:29:33;;;;;;;4.90;4.40;;;17.40;99.90;;;;;;6225806;28;20574;-62
2022/09/10 02:32:37;;;;;;;5.87;5.37;;;17.40;99.90;;;;;;6226165;28;20472;-62
2022/09/10 02:35:41;;;;;;;4.17;3.87;;;17.40;99.90;;;;;;6225876;28;20488;-62
2022/09/10 02:38:44;;;;;;;5.27;3.47;;;17.30;99.90;;;;;;6225688;28;20472;-62
2022/09/10 02:41:47;;;;;;;4.70;3.80;;;17.30;99.90;;;;;;6225694;28;20816;-62
2022/09/10 02:44:50;;;;;;;5.57;4.30;;;17.30;99.90;;;;;;6225359;28;20484;-62
2022/09/10 02:47:54;;;;;;;4.83;4.30;;;17.20;99.90;;;;;;6225924;28;20573;-62
2022/09/10 02:50:57;;;;;;;7.70;3.90;;;17.20;99.90;;;;;;6225402;28;20526;-62
2022/09/10 02:54:00;;;;;;;6.13;3.20;;;17.10;99.90;;;;;;6225465;28;20491;-62
2022/09/10 02:57:04;;;;;;;3.80;3.30;;;17.10;99.90;;;;;;6225379;28;20480;-64
2022/09/10 03:00:08;;;;;;;4.10;3.70;;;17.10;99.90;;;;;;6225512;28;21011;-63
2022/09/10 03:03:15;;;;;;;4.03;3.43;;;17.00;99.90;;;;;;6225588;28;20519;-63
2022/09/10 03:06:18;;;;;;;4.50;3.03;;;17.00;99.90;;;;;;6225503;28;20534;-63
2022/09/10 03:09:21;;;;;;;4.00;3.60;;;16.90;99.90;;;;;;6225205;28;20472;-63
2022/09/10 03:12:24;;;;;;;4.70;3.27;;;16.90;99.90;;;;;;6225269;28;20476;-63
2022/09/10 03:15:28;;;;;;;3.40;2.93;;;16.90;99.90;;;;;;6225309;28;20868;-63
2022/09/10 03:18:34;;;;;;;3.10;2.80;;;16.80;99.90;;;;;;6227500;28;20467;-63
2022/09/10 03:21:40;;;;;;;3.37;3.07;;;16.80;99.90;;;;;;6230306;28;20478;-63
2022/09/10 03:24:43;;;;;;;3.67;3.37;;;16.80;99.90;;;;;;6205505;28;20861;-64
2022/09/10 03:27:46;;;;;;;3.77;3.47;;;16.80;99.90;;;;;;6205589;28;20960;-64
2022/09/10 03:30:49;;;;;;;4.20;3.80;;;16.80;99.90;;;;;;6210138;28;20493;-64
2022/09/10 03:33:54;;;;;;;4.47;4.00;;;16.80;99.90;;;;;;6229765;28;20482;-64
2022/09/10 03:36:57;;;;;;;3.70;3.37;;;16.80;99.90;;;;;;6230045;28;20491;-63
2022/09/10 03:40:00;;;;;;;6.30;3.70;;;16.80;99.90;;;;;;6229812;28;20526;-63
2022/09/10 03:43:04;;;;;;;5.40;4.10;;;16.80;99.90;;;;;;6229708;28;21074;-63
2022/09/10 03:46:07;;;;;;;4.50;4.07;;;16.70;99.90;;;;;;6229846;28;20464;-64
2022/09/10 03:49:11;;;;;;;4.27;3.90;;;16.70;99.90;;;;;;6229940;28;20479;-64
2022/09/10 03:52:15;;;;;;;7.30;4.70;;;16.70;99.90;;;;;;6229456;28;20444;-64
2022/09/10 03:55:18;;;;;;;5.20;4.80;;;16.70;99.90;;;;;;6228738;28;20480;-64
2022/09/10 03:58:21;;;;;;;5.73;5.20;;;16.70;99.90;;;;;;6229266;28;20538;-64
2022/09/10 04:01:24;;;;;;;5.63;5.13;;;16.70;99.90;;;;;;6229011;28;20468;-64
2022/09/10 04:04:30;;;;;;;5.13;4.60;;;16.70;99.90;;;;;;6229199;28;20474;-63
2022/09/10 04:07:33;;;;;;;5.67;4.63;;;16.70;99.90;;;;;;6229524;28;20479;-63
2022/09/10 04:10:37;;;;;;;4.53;4.13;;;16.70;99.90;;;;;;6229100;28;20476;-64
2022/09/10 04:13:40;;;;;;;8.57;4.20;;;16.70;99.90;;;;;;6229540;28;20537;-63
2022/09/10 04:16:43;;;;;;;4.07;3.67;;;16.60;99.90;;;;;;6228889;28;20476;-63
2022/09/10 04:19:49;;;;;;;5.97;4.03;;;16.60;99.90;;;;;;6229179;28;20474;-63
2022/09/10 04:22:55;;;;;;;4.97;4.50;;;16.60;99.90;;;;;;6228889;28;20488;-64
2022/09/10 04:25:58;;;;;;;5.10;4.67;;;16.50;99.90;;;;;;6228487;28;20482;-63
2022/09/10 04:29:01;;;;;;;5.43;4.83;;;16.40;99.90;;;;;;6213785;28;20483;-63
2022/09/10 04:32:04;;;;;;;5.97;5.47;;;16.30;99.90;;;;;;6228226;28;20479;-64
2022/09/10 04:35:09;;;;;;;5.10;4.60;;;16.30;99.90;;;;;;6228402;28;20894;-63
2022/09/10 04:38:12;;;;;;;4.43;3.90;;;16.20;99.90;;;;;;6228478;28;20542;-63
2022/09/10 04:41:17;;;;;;;4.47;4.07;;;16.20;99.90;;;;;;6228391;28;20851;-63
2022/09/10 04:44:20;;;;;;;8.70;4.87;;;16.20;99.90;;;;;;6227994;28;20862;-63
2022/09/10 04:47:23;;;;;;;5.03;4.50;;;16.20;99.90;;;;;;6228273;28;20499;-63
2022/09/10 04:50:27;;;;;;;5.37;4.70;;;16.20;99.90;;;;;;6227836;28;20822;-63
2022/09/10 04:53:33;;;;;;;5.17;4.77;;;16.20;99.90;;;;;;6227887;28;20864;-63
2022/09/10 04:56:36;;;;;;;4.67;4.17;;;16.20;99.90;;;;;;6227970;28;20471;-63
2022/09/10 04:59:39;;;;;;;5.73;4.50;;;16.20;99.90;;;;;;6228156;28;20483;-63
2022/09/10 05:02:42;;;;;;;4.07;3.77;;;16.30;99.90;;;;;;6227947;28;20483;-62
2022/09/10 05:05:47;;;;;;;4.70;4.17;;;16.30;99.90;;;;;;6228153;28;20464;-63
2022/09/10 05:08:50;;;;;;;5.07;3.87;;;16.40;99.90;;;;;;6227731;28;20619;-63
2022/09/10 05:11:53;;;;;;;4.20;3.80;;;16.40;99.90;;;;;;6227888;28;20816;-64
2022/09/10 05:14:56;;;;;;;5.63;5.13;;;16.50;99.90;;;;;;6227355;28;20476;-64
2022/09/10 05:17:59;;;;;;;7.63;6.93;;;16.50;99.90;;;;;;6227392;28;20483;-63
2022/09/10 05:21:04;;;;;;;7.20;4.80;;;16.60;99.90;;;;;;6227499;28;20479;-63
2022/09/10 05:24:07;;;;;;;5.70;4.40;;;16.60;99.90;;;;;;6227130;28;20603;-63
2022/09/10 05:27:10;;;;;;;4.23;3.80;;;16.70;99.90;;;;;;6227301;28;20534;-63
2022/09/10 05:30:13;;;;;;;4.53;4.13;;;16.80;99.90;;;;;;6227146;28;20479;-63
2022/09/10 05:33:17;;;;;;;4.50;4.10;;;16.90;99.90;;;;;;6217810;28;20472;-64
2022/09/10 05:36:21;;;;;;;4.07;3.77;;;17.00;99.90;;;;;;6227151;28;20538;-63
2022/09/10 05:39:24;;;;;;;4.83;3.70;;;17.10;99.90;;;;;;6227079;28;20476;-63
2022/09/10 05:42:27;;;;;;;5.10;3.60;;;17.10;99.90;;;;;;6226457;28;20534;-63
2022/09/10 05:45:30;;;;;;;4.37;3.73;;;17.10;99.90;;;;;;6227082;28;20514;-63
2022/09/10 05:48:34;;;;;;;7.10;3.40;;;17.10;99.90;;;;;;6226573;28;20799;-63
2022/09/10 05:51:44;;;;;;;3.77;3.40;;;17.20;99.90;;;;;;6226939;28;20476;-63
2022/09/10 05:54:47;;;;;;;4.63;3.20;;;17.20;99.90;;;;;;6219072;22;20686;-63
2022/09/10 05:57:50;;;;;;;4.07;3.40;;;17.10;99.90;;;;;;6202083;28;20976;-63
2022/09/10 06:00:54;;;;;;;4.40;3.73;;;17.00;99.90;;;;;;6202139;28;20473;-63
2022/09/10 06:03:57;;;;;;;5.07;3.57;;;16.90;99.90;;;;;;6201978;28;21013;-63
2022/09/10 06:07:03;;;;;;;4.13;3.73;;;16.90;99.90;;;;;;6202149;28;20512;-63
2022/09/10 06:10:07;;;;;;;5.70;3.53;;;17.00;99.90;;;;;;6201465;28;20488;-63
2022/09/10 06:13:11;;;;;;;3.33;3.03;;;17.00;99.90;;;;;;6202286;28;20460;-63
2022/09/10 06:16:14;;;;;;;5.43;3.60;;;17.10;99.90;;;;;;6202131;28;20507;-63
2022/09/10 06:19:18;;;;;;;4.53;3.57;;;17.30;99.90;;;;;;6202172;28;20584;-63
2022/09/10 06:22:23;;;;;;;3.77;3.47;;;17.50;99.90;;;;;;6201562;28;20472;-63
2022/09/10 06:25:26;;;;;;;3.70;2.90;;;17.90;99.90;;;;;;6208787;28;20487;-63
2022/09/10 06:28:29;;;;;;;3.57;3.27;;;18.40;99.90;;;;;;6217322;28;20511;-63
2022/09/10 06:31:33;;;;;;;2.50;2.27;;;19.70;99.90;;;;;;6206704;28;20229;-63
2022/09/10 06:34:36;;;;;;;3.40;2.80;;;21.90;99.90;;;;;;6199204;28;20237;-63
2022/09/10 06:37:41;;;;;;;2.53;2.30;;;23.70;99.90;;;;;;6202317;28;20244;-63
2022/09/10 06:40:53;;;;;;;2.50;2.13;;;25.40;99.90;;;;;;6201613;28;20241;-64
2022/09/10 06:43:57;;;;;;;2.30;2.20;;;27.00;95.20;;;;;;6201182;28;20260;-63
2022/09/10 06:47:01;;;;;;;2.60;2.20;;;28.30;91.00;;;;;;6201003;28;20715;-64
2022/09/10 06:50:24;;;;;;;2.33;2.13;;;29.60;84.70;;;;;;6212434;28;20229;-64
2022/09/10 06:53:32;;;;;;;2.87;2.67;;;31.10;73.70;;;;;;6175833;28;20300;-63
2022/09/10 06:56:35;;;;;;;5.35;2.20;;;32.20;68.20;;;;;;6177223;28;20318;-65
2022/09/10 06:59:40;;;;;;;2.15;1.90;;;33.00;61.90;;;;;;6177536;28;20245;-65
2022/09/10 07:02:43;;;;;;;3.38;1.80;;;33.80;58.50;;;;;;6177044;28;20233;-65
2022/09/10 07:05:47;;;;;;;2.25;2.05;;;34.50;54.90;;;;;;6177013;28;20234;-65
2022/09/10 07:08:56;;;;;;;1.90;1.80;;;35.40;52.10;;;;;;6176921;28;20598;-65
2022/09/10 07:11:59;;;;;;;1.70;1.60;;;36.30;48.90;;;;;;6177240;28;20237;-65
2022/09/10 07:15:02;;;;;;;2.50;1.67;;;37.10;45.60;;;;;;6176525;28;20277;-65
2022/09/10 07:18:05;;;;;;;1.73;1.45;;;37.70;42.80;;;;;;6176816;28;20673;-65
2022/09/10 07:21:10;;;;;;;2.00;1.88;;;38.30;41.70;;;;;;6176898;28;20237;-65
2022/09/10 07:24:15;;;;;;;1.65;1.55;;;39.00;39.60;;;;;;6176972;28;20284;-64
2022/09/10 07:27:18;;;;;;;1.90;1.20;;;39.60;37.80;;;;;;6176774;28;20369;-64
2022/09/10 07:30:22;;;;;;;2.38;1.63;;;40.10;36.50;;;;;;6176669;28;20257;-64
2022/09/10 07:33:25;;;;;;;1.73;1.25;;;40.60;34.10;;;;;;6176482;28;20620;-65
2022/09/10 07:36:29;;;;;;;2.08;1.35;;;41.00;32.50;;;;;;6176641;28;20261;-65
2022/09/10 07:39:33;;;;;;;1.98;1.48;;;41.20;32.00;;;;;;6171903;28;20234;-65
2022/09/10 07:42:37;;;;;;;1.40;1.30;;;41.50;30.90;;;;;;6176540;28;20233;-64
2022/09/10 07:45:40;;;;;;;1.20;1.10;;;42.30;30.40;;;;;;6176406;28;20261;-64
2022/09/10 07:48:43;;;;;;;1.60;1.50;;;43.10;29.80;;;;;;6176257;28;20603;-65
2022/09/10 07:51:46;;;;;;;1.55;1.33;;;43.40;29.10;;;;;;6176426;28;20237;-65
2022/09/10 07:54:51;;;;;;;1.88;1.52;;;44.20;28.30;;;;;;6175924;28;20246;-65
2022/09/10 07:57:54;;;;;;;1.90;1.55;;;45.10;27.90;;;;;;6189223;28;20225;-65
2022/09/10 08:01:07;;;;;;;3.10;1.60;;;46.50;26.70;;;;;;6200131;28;20228;-63
2022/09/10 08:04:11;;;;;;;3.13;1.60;;;45.60;26.40;;;;;;6211105;28;20240;-63
2022/09/10 08:07:16;;;;;;;1.10;1.00;;;43.70;27.10;;;;;;6229286;28;20348;-63
2022/09/10 08:10:21;;;;;;;1.98;1.27;;;43.40;27.40;;;;;;6229409;28;20284;-63
2022/09/10 08:13:28;;;;;;;2.55;1.88;;;43.40;27.00;;;;;;6229100;28;20234;-63
2022/09/10 08:16:32;;;;;;;2.10;1.30;;;42.60;27.30;;;;;;6229026;28;20251;-63
2022/09/10 08:19:35;;;;;;;1.30;1.20;;;40.80;28.50;;;;;;6229056;28;20244;-63
2022/09/10 08:22:38;;;;;;;1.92;1.40;;;39.30;29.90;;;;;;6229110;28;20229;-63
2022/09/10 08:25:50;;;;;;;1.33;1.23;;;38.40;30.80;;;;;;6228605;28;20276;-63
2022/09/10 08:28:55;;;;;;;1.73;1.50;;;37.10;32.30;;;;;;6229107;28;20334;-63
2022/09/10 08:31:58;;;;;;;2.15;1.35;;;35.60;33.90;;;;;;6228678;28;20302;-63
2022/09/10 08:35:03;;;;;;;1.48;1.38;;;34.10;35.20;;;;;;6228488;28;20251;-63
2022/09/10 08:38:07;;;;;;;2.22;1.70;;;33.20;37.00;;;;;;6228421;28;20267;-63
2022/09/10 08:41:31;;;;;;;2.20;1.10;;;32.80;37.90;;;;;;6228629;28;20240;-63
2022/09/10 08:44:40;;;;;;;2.20;1.63;;;33.80;36.70;;;;;;6228289;28;20351;-63
2022/09/10 08:47:54;;;;;;;2.08;1.40;;;35.30;34.30;;;;;;6228178;28;20236;-63
2022/09/10 08:51:01;;;;;;;1.80;1.52;;;36.50;34.80;;;;;;6227918;28;20248;-61
2022/09/10 08:54:10;;;;;;;1.42;1.08;;;39.90;30.60;;;;;;6227857;28;20232;-61
2022/09/10 08:57:23;;;;;;;1.63;1.23;;;40.40;28.50;;;;;;6227785;28;20229;-60
2022/09/10 09:00:31;;;;;;;1.27;1.10;;;41.60;27.60;;;;;;6228059;28;20224;-61
2022/09/10 09:03:37;;;;;;;1.70;1.02;;;43.10;26.70;;;;;;6227937;28;20302;-65
2022/09/10 09:06:46;;;;;;;1.00;0.90;;;42.00;26.90;;;;;;6228143;28;20263;-62
2022/09/10 09:09:51;;;;;;;1.67;1.15;;;40.10;27.10;;;;;;6227148;28;20228;-62
2022/09/10 09:13:21;;;;;;;1.50;1.35;;;38.70;29.30;;;;;;6227912;28;20322;-61
2022/09/10 09:16:44;;;;;;;1.00;0.90;;;38.10;29.80;;;;;;6227114;28;20263;-61
2022/09/10 09:19:58;;;;;;;4.30;1.27;;;40.40;29.10;;;;;;6222409;28;20237;-62
2022/09/10 09:23:13;;;;;;;1.20;1.10;;;44.50;26.60;;;;;;6203032;28;20267;-62
2022/09/10 09:26:18;;;;;;;1.27;1.00;;;46.80;24.10;;;;;;6202787;28;20237;-62
2022/09/10 09:29:27;;;;;;;1.00;0.80;;;48.30;23.10;;;;;;6203138;28;20236;-62
2022/09/10 09:32:33;;;;;;;2.92;1.40;;;49.10;21.50;;;;;;6202690;28;20244;-62
2022/09/10 09:35:46;;;;;;;0.88;0.60;;;49.70;20.30;;;;;;6202814;28;20553;-62
2022/09/10 09:38:50;;;;;;;0.88;0.75;;;50.70;20.60;;;;;;6202644;28;20292;-62
2022/09/10 09:42:01;;;;;;;0.80;0.80;;;50.20;19.30;;;;;;6202891;28;20236;-62
2022/09/10 09:45:16;;;;;;;0.82;0.75;;;49.70;19.70;;;;;;6202533;28;20249;-62
2022/09/10 09:48:20;;;;;;;1.00;0.88;;;49.40;19.60;;;;;;6193442;28;20243;-62
2022/09/10 09:51:25;;;;;;;1.88;0.95;;;50.20;19.30;;;;;;6202174;28;20235;-62
2022/09/10 09:54:31;;;;;;;0.93;0.80;;;50.30;19.50;;;;;;6201952;28;20600;-62
2022/09/10 09:58:28;;;;;;;1.90;1.02;;;49.60;19.60;;;;;;6202255;28;20324;-62
2022/09/10 10:01:33;;;;;;;2.65;0.82;;;47.20;21.30;;;;;;6202290;28;20228;-62
2022/09/10 10:04:37;;;;;;;1.20;1.10;;;46.20;22.50;;;;;;6202347;28;20256;-62
2022/09/10 10:07:48;;;;;;;2.25;1.25;;;44.80;22.80;;;;;;6202337;28;20242;-62
2022/09/10 10:10:52;;;;;;;1.15;1.00;;;43.30;23.50;;;;;;6202259;28;20246;-62
2022/09/10 10:14:12;;;;;;;2.15;0.73;;;41.20;24.60;;;;;;6201936;28;20237;-61
2022/09/10 10:17:39;;;;;;;0.85;0.70;;;39.50;24.80;;;;;;6201944;28;20564;-62
2022/09/10 10:20:42;;;;;;;1.30;0.73;;;38.20;25.90;;;;;;6199011;28;20233;-62
2022/09/10 10:23:45;;;;;;;1.15;0.70;;;37.20;27.20;;;;;;6201687;28;20236;-62
2022/09/10 10:26:48;;;;;;;1.35;0.60;;;36.20;27.80;;;;;;6201420;28;20229;-61
2022/09/10 10:29:54;;;;;;;1.75;1.05;;;35.30;28.90;;;;;;6201487;28;20646;-61
2022/09/10 10:33:00;;;;;;;1.13;0.70;;;33.80;30.00;;;;;;6201197;28;20237;-61
2022/09/10 10:36:10;;;;;;;1.50;0.77;;;32.90;31.40;;;;;;6201633;28;20229;-61
2022/09/10 10:39:23;;;;;;;1.30;0.68;;;32.00;32.70;;;;;;6201264;28;20233;-61
2022/09/10 10:42:31;;;;;;;1.58;0.63;;;30.90;34.00;;;;;;6201336;28;20660;-62
2022/09/10 10:45:37;;;;;;;0.80;0.50;;;30.30;34.60;;;;;;6201256;28;20237;-61
2022/09/10 10:49:05;;;;;;;1.13;0.98;;;29.90;35.40;;;;;;6201242;28;20240;-61
2022/09/10 10:52:14;;;;;;;3.35;0.68;;;29.80;35.90;;;;;;6201219;28;20228;-61
2022/09/10 10:55:23;;;;;;;1.03;0.50;;;29.50;35.90;;;;;;6200691;28;20253;-61
2022/09/10 10:58:47;;;;;;;2.60;1.13;;;29.20;37.00;;;;;;6200835;28;20555;-61
2022/09/10 11:02:02;;;;;;;0.97;0.60;;;28.80;37.40;;;;;;6201192;28;20307;-61
2022/09/10 11:05:19;;;;;;;1.33;0.70;;;29.00;37.60;;;;;;6201107;28;20313;-61
2022/09/10 11:08:32;;;;;;;1.63;0.80;;;29.00;37.50;;;;;;6201072;28;20241;-61
2022/09/10 11:11:44;;;;;;;1.43;0.60;;;29.20;37.50;;;;;;6201116;28;20233;-61
2022/09/10 11:14:52;;;;;;;1.77;0.80;;;29.20;37.70;;;;;;6200987;28;20229;-62
2022/09/10 11:17:59;;;;;;;2.07;0.83;;;29.30;37.80;;;;;;6201313;28;20241;-61
2022/09/10 11:21:11;;;;;;;1.87;0.93;;;29.40;37.90;;;;;;6200903;28;20237;-61
2022/09/10 11:24:20;;;;;;;1.33;0.60;;;29.20;37.50;;;;;;6200994;28;20233;-61
2022/09/10 11:27:30;;;;;;;1.77;1.17;;;28.50;38.20;;;;;;6200750;28;20233;-61
2022/09/10 11:30:34;;;;;;;3.33;0.70;;;28.70;38.90;;;;;;6200901;28;20540;-61
2022/09/10 11:33:46;;;;;;;2.17;0.90;;;29.00;38.00;;;;;;6200533;28;20237;-61
2022/09/10 11:36:56;;;;;;;1.17;0.60;;;29.10;37.70;;;;;;6200730;28;20299;-62
2022/09/10 11:40:04;;;;;;;1.03;0.73;;;29.10;38.50;;;;;;6203301;28;20233;-61
2022/09/10 11:43:12;;;;;;;2.80;0.60;;;29.20;39.20;;;;;;6205185;28;20213;-61
2022/09/10 11:46:20;;;;;;;0.80;0.60;;;29.50;38.40;;;;;;6205267;28;20617;-61
2022/09/10 11:49:32;;;;;;;2.13;0.70;;;29.30;38.10;;;;;;6205425;28;20622;-61
2022/09/10 11:52:39;;;;;;;1.13;0.63;;;29.60;38.60;;;;;;6205436;28;20244;-61
2022/09/10 11:56:06;;;;;;;1.23;0.80;;;30.00;37.60;;;;;;6191019;28;20245;-62
2022/09/10 11:59:21;;;;;;;1.00;0.70;;;30.00;36.80;;;;;;6205205;28;20245;-61
2022/09/10 12:02:54;;;;;;;1.20;0.90;;;29.20;37.80;;;;;;6205053;28;20234;-61
2022/09/10 12:06:05;;;;;;;1.87;0.60;;;28.90;38.30;;;;;;6187687;28;20229;-61
2022/09/10 12:09:20;;;;;;;0.90;0.70;;;28.90;38.30;;;;;;6205037;28;20252;-61
2022/09/10 12:12:32;;;;;;;0.90;0.60;;;28.90;39.70;;;;;;6204917;28;20237;-61
2022/09/10 12:15:36;;;;;;;0.80;0.50;;;29.40;39.40;;;;;;6204656;28;20295;-61
2022/09/10 12:18:44;;;;;;;1.75;0.90;;;29.50;37.70;;;;;;6207345;28;20229;-61
2022/09/10 12:21:51;;;;;;;2.08;0.90;;;29.50;38.10;;;;;;6206915;28;20269;-61
2022/09/10 12:25:01;;;;;;;1.93;1.00;;;29.50;39.30;;;;;;6204683;28;20295;-62
2022/09/10 12:28:06;;;;;;;1.03;0.80;;;29.30;39.40;;;;;;6204707;28;20237;-62
2022/09/10 12:31:11;;;;;;;1.50;1.00;;;29.20;39.50;;;;;;6204580;28;20292;-61
2022/09/10 12:34:17;;;;;;;0.90;0.60;;;29.10;40.00;;;;;;6203759;28;20252;-62
2022/09/10 12:37:24;;;;;;;1.60;0.70;;;28.80;40.60;;;;;;6204308;28;20190;-61
2022/09/10 12:40:48;;;;;;;2.83;0.70;;;28.30;41.00;;;;;;6204312;28;20245;-61
2022/09/10 12:43:56;;;;;;;0.90;0.60;;;28.20;41.60;;;;;;6203807;28;20728;-62
2022/09/10 12:47:49;;;;;;;1.80;0.50;;;28.10;41.50;;;;;;6203675;28;20503;-62
2022/09/10 12:50:56;;;;;;;1.80;0.70;;;27.90;40.90;;;;;;6200697;28;20238;-66
2022/09/10 12:54:19;;;;;;;1.00;0.63;;;27.40;41.40;;;;;;6203240;28;20244;-62
2022/09/10 12:57:32;;;;;;;1.50;1.40;;;27.40;42.20;;;;;;6203535;28;20311;-62
2022/09/10 13:00:45;;;;;;;1.00;0.67;;;27.80;41.30;;;;;;6206763;28;20676;-62
2022/09/10 13:03:53;;;;;;;1.00;0.50;;;28.10;40.70;;;;;;6216942;28;20232;-62
2022/09/10 13:07:00;;;;;;;0.80;0.60;;;28.10;40.20;;;;;;6218245;28;20672;-62
2022/09/10 13:10:07;;;;;;;1.20;0.50;;;28.00;39.90;;;;;;6215012;28;20305;-62
2022/09/10 13:13:31;;;;;;;1.47;0.60;;;27.80;41.30;;;;;;6203543;28;20225;-61
2022/09/10 13:16:40;;;;;;;1.07;0.80;;;27.60;43.20;;;;;;6203260;28;20237;-62
2022/09/10 13:19:49;;;;;;;1.20;0.70;;;27.20;42.80;;;;;;6208230;28;20237;-62
2022/09/10 13:22:56;;;;;;;1.97;0.50;;;26.70;44.00;;;;;;6207834;28;20225;-62
2022/09/10 13:26:47;;;;;;;2.43;0.70;;;26.30;44.70;;;;;;6214746;28;20635;-62
2022/09/10 13:29:56;;;;;;;1.00;0.60;;;25.80;47.40;;;;;;6227153;28;20233;-62
2022/09/10 13:33:03;;;;;;;1.10;0.70;;;25.50;48.40;;;;;;6227210;28;20233;-62
2022/09/10 13:36:22;;;;;;;1.20;0.60;;;25.30;49.20;;;;;;6227244;28;20228;-62
2022/09/10 13:39:53;;;;;;;0.83;0.70;;;25.10;50.20;;;;;;6226961;28;20248;-62
2022/09/10 13:43:20;;;;;;;1.73;0.70;;;25.20;51.00;;;;;;6227021;28;20220;-62
2022/09/10 13:46:31;;;;;;;1.90;0.83;;;25.40;50.70;;;;;;6225909;28;20229;-62
2022/09/10 13:49:39;;;;;;;0.80;0.70;;;25.50;51.20;;;;;;6212381;28;20247;-63
2022/09/10 13:52:47;;;;;;;1.87;0.70;;;25.50;51.60;;;;;;6210178;28;20601;-62
2022/09/10 13:55:57;;;;;;;1.10;0.90;;;25.50;52.70;;;;;;6213731;28;20243;-62
2022/09/10 13:59:02;;;;;;;0.90;0.60;;;25.40;54.00;;;;;;6215392;28;20232;-62
2022/09/10 14:02:07;;;;;;;1.20;0.80;;;25.40;55.30;;;;;;6173027;28;20242;-62
2022/09/10 14:05:34;;;;;;;2.00;0.77;;;25.30;56.80;;;;;;6178513;28;20253;-62
2022/09/10 14:08:41;;;;;;;1.60;0.87;;;25.10;58.10;;;;;;6177477;28;20238;-62
2022/09/10 14:11:44;;;;;;;1.30;0.80;;;24.90;59.90;;;;;;6177826;28;20245;-62
2022/09/10 14:14:51;;;;;;;2.17;1.20;;;24.60;61.50;;;;;;6177450;28;20944;-62
2022/09/10 14:17:58;;;;;;;1.73;1.00;;;24.40;62.80;;;;;;6177960;28;20285;-63
2022/09/10 14:21:02;;;;;;;2.07;0.60;;;24.30;63.80;;;;;;6177296;28;20230;-62
2022/09/10 14:24:05;;;;;;;2.83;0.60;;;24.20;63.70;;;;;;6196097;28;20233;-62
2022/09/10 14:27:17;;;;;;;1.10;0.50;;;24.10;63.30;;;;;;6211952;28;20286;-62
2022/09/10 14:30:25;;;;;;;1.30;0.53;;;23.90;63.70;;;;;;6212006;28;20225;-62
2022/09/10 14:33:33;;;;;;;1.77;0.60;;;23.80;64.80;;;;;;6219543;28;20225;-61
2022/09/10 14:36:36;;;;;;;1.83;0.57;;;23.70;65.60;;;;;;6220069;28;20240;-61
2022/09/10 14:39:44;;;;;;;1.80;0.80;;;23.60;66.60;;;;;;6225477;28;20581;-62
2022/09/10 14:42:48;;;;;;;1.47;0.73;;;23.50;68.30;;;;;;6217793;28;20789;-61
2022/09/10 14:45:51;;;;;;;2.10;0.90;;;23.30;68.80;;;;;;6213768;28;20229;-62
2022/09/10 14:49:14;;;;;;;1.67;0.93;;;23.10;71.70;;;;;;6201096;28;20226;-62
2022/09/10 14:52:18;;;;;;;1.70;0.90;;;23.00;73.60;;;;;;6212174;28;20226;-62
2022/09/10 14:55:24;;;;;;;4.10;1.03;;;22.70;74.50;;;;;;6225174;28;20241;-61
2022/09/10 14:58:28;;;;;;;2.07;1.43;;;22.40;75.60;;;;;;6179509;28;20202;-64
2022/09/10 15:01:31;;;;;;;1.60;1.20;;;22.00;76.60;;;;;;6176896;28;20234;-64
2022/09/10 15:04:37;;;;;;;1.27;0.80;;;21.80;76.90;;;;;;6177270;28;20317;-67
2022/09/10 15:07:41;;;;;;;1.97;0.77;;;21.70;76.30;;;;;;6176968;28;20254;-67
2022/09/10 15:10:44;;;;;;;1.63;0.90;;;21.60;77.70;;;;;;6176628;28;20230;-63
2022/09/10 15:13:48;;;;;;;2.07;1.47;;;21.60;75.60;;;;;;6175982;28;20238;-63
2022/09/10 15:16:52;;;;;;;1.10;0.77;;;21.70;74.00;;;;;;6176854;28;20226;-67
2022/09/10 15:19:57;;;;;;;2.73;1.40;;;21.60;74.30;;;;;;6184857;28;20674;-66
2022/09/10 15:23:00;;;;;;;1.17;1.07;;;21.50;75.30;;;;;;6200934;28;20284;-64
2022/09/10 15:26:05;;;;;;;1.30;1.00;;;21.50;77.00;;;;;;6200462;28;20257;-67
2022/09/10 15:29:08;;;;;;;1.40;1.00;;;21.30;78.30;;;;;;6200723;28;20225;-67
2022/09/10 15:32:11;;;;;;;3.60;0.90;;;21.30;79.40;;;;;;6200702;28;20673;-64
2022/09/10 15:35:17;;;;;;;0.80;0.77;;;21.30;81.70;;;;;;6200847;28;20253;-63
2022/09/10 15:38:20;;;;;;;1.97;1.30;;;21.30;81.20;;;;;;6200085;28;20658;-63
2022/09/10 15:41:24;;;;;;;1.23;0.87;;;21.30;82.40;;;;;;6200521;28;20237;-64
2022/09/10 15:44:28;;;;;;;1.63;1.03;;;21.30;82.20;;;;;;6200191;28;20237;-63
2022/09/10 15:47:32;;;;;;;1.50;0.70;;;21.30;81.70;;;;;;6200399;28;20594;-63
2022/09/10 15:50:37;;;;;;;1.17;0.83;;;21.20;82.90;;;;;;6200220;28;20240;-63
2022/09/10 15:53:41;;;;;;;2.43;1.20;;;21.20;83.40;;;;;;6199859;28;20241;-63
2022/09/10 15:56:45;;;;;;;1.30;1.20;;;21.30;83.70;;;;;;6210221;28;20599;-65
2022/09/10 15:59:48;;;;;;;2.97;1.20;;;21.40;84.80;;;;;;6213197;28;20225;-64
2022/09/10 16:02:51;;;;;;;1.77;1.40;;;21.60;84.40;;;;;;6218433;28;20228;-63
2022/09/10 16:06:01;;;;;;;1.53;1.10;;;21.60;84.00;;;;;;6216148;28;20239;-64
2022/09/10 16:09:06;;;;;;;2.87;1.90;;;21.80;84.10;;;;;;6224715;28;20237;-64
2022/09/10 16:12:09;;;;;;;1.87;1.63;;;21.90;85.20;;;;;;6215452;28;20657;-64
2022/09/10 16:15:13;;;;;;;2.07;1.30;;;21.90;84.90;;;;;;6224591;28;20233;-64
2022/09/10 16:18:16;;;;;;;1.60;1.23;;;21.90;85.60;;;;;;6224475;28;20229;-63